createdAt,value
2018-02-21T00:00:48.588Z,34.70
2018-02-21T00:03:17.728Z,35.07
2018-02-21T00:05:46.078Z,36.23
2018-02-21T00:08:14.426Z,34.53
2018-02-21T00:10:42.806Z,36.17
2018-02-21T00:13:11.330Z,33.00
2018-02-21T00:15:39.655Z,32.37
2018-02-21T00:18:08.005Z,32.03
2018-02-21T00:20:37.936Z,32.97
2018-02-21T00:23:06.276Z,32.33
2018-02-21T00:25:34.848Z,33.63
2018-02-21T00:28:03.256Z,34.60
2018-02-21T00:30:31.608Z,34.03
2018-02-21T00:33:00.078Z,34.53
2018-02-21T00:35:29.167Z,34.00
2018-02-21T00:37:58.299Z,33.30
2018-02-21T00:40:26.898Z,35.97
2018-02-21T00:42:55.221Z,32.77
2018-02-21T00:45:23.574Z,35.40
2018-02-21T00:47:52.015Z,31.90
2018-02-21T00:50:21.004Z,32.13
2018-02-21T00:52:49.344Z,30.23
2018-02-21T00:55:17.729Z,31.60
2018-02-21T00:57:46.841Z,33.77
2018-02-21T01:00:15.992Z,31.43
2018-02-21T01:02:44.337Z,31.50
2018-02-21T01:05:12.680Z,32.63
2018-02-21T01:07:41.829Z,31.43
2018-02-21T01:10:10.181Z,32.03
2018-02-21T01:12:38.555Z,32.20
2018-02-21T01:15:07.670Z,31.27
2018-02-21T01:17:36.008Z,31.80
2018-02-21T01:20:04.359Z,32.13
2018-02-21T01:22:32.712Z,32.33
2018-02-21T01:25:01.091Z,30.83
2018-02-21T01:27:29.529Z,31.03
2018-02-21T01:29:58.653Z,31.67
2018-02-21T01:32:27.071Z,30.63
2018-02-21T01:34:55.426Z,29.73
2018-02-21T01:37:23.780Z,32.37
2018-02-21T01:39:52.144Z,29.63
2018-02-21T01:42:20.498Z,31.20
2018-02-21T01:44:48.881Z,30.37
2018-02-21T01:47:17.220Z,29.90
2018-02-21T01:49:45.564Z,29.83
2018-02-21T01:52:14.692Z,30.03
2018-02-21T01:54:43.072Z,30.40
2018-02-21T01:57:11.426Z,29.23
2018-02-21T01:59:40.551Z,30.43
2018-02-21T02:02:08.896Z,30.37
2018-02-21T02:04:38.042Z,32.23
2018-02-21T02:07:06.373Z,29.80
2018-02-21T02:09:35.489Z,29.33
2018-02-21T02:12:03.842Z,31.37
2018-02-21T02:14:32.957Z,30.43
2018-02-21T02:17:01.363Z,31.43
2018-02-21T02:19:29.699Z,29.70
2018-02-21T02:21:58.872Z,29.70
2018-02-21T02:24:27.221Z,30.63
2018-02-21T02:26:56.280Z,29.83
2018-02-21T02:29:25.392Z,33.37
2018-02-21T02:31:53.800Z,30.27
2018-02-21T02:34:22.131Z,29.83
2018-02-21T02:36:51.107Z,29.73
2018-02-21T02:42:21.413Z,39.65
2018-02-21T02:44:49.880Z,32.00
2018-02-21T02:47:18.301Z,30.63
2018-02-21T02:49:46.736Z,30.60
2018-02-21T02:52:15.703Z,30.63
2018-02-21T02:54:44.812Z,30.70
2018-02-21T02:57:13.174Z,28.93
2018-02-21T02:59:41.510Z,30.27
2018-02-21T03:02:09.963Z,28.60
2018-02-21T03:04:38.325Z,30.00
2018-02-21T03:07:07.432Z,29.13
2018-02-21T03:09:35.839Z,29.57
2018-02-21T03:12:04.213Z,29.13
2018-02-21T03:14:32.600Z,30.23
2018-02-21T03:17:00.948Z,30.47
2018-02-21T03:19:29.894Z,30.00
2018-02-21T03:21:58.292Z,28.30
2018-02-21T03:24:26.632Z,29.17
2018-02-21T03:26:55.991Z,31.53
2018-02-21T03:29:25.102Z,29.43
2018-02-21T03:31:53.511Z,27.27
2018-02-21T03:34:21.848Z,28.27
2018-02-21T03:36:50.968Z,27.77
2018-02-21T03:39:19.342Z,27.73
2018-02-21T03:41:47.741Z,28.87
2018-02-21T03:44:16.096Z,29.27
2018-02-21T03:46:44.474Z,28.53
2018-02-21T03:49:12.835Z,28.60
2018-02-21T03:51:41.947Z,28.53
2018-02-21T03:54:10.360Z,27.93
2018-02-21T03:56:38.716Z,28.97
2018-02-21T03:59:07.057Z,27.10
2018-02-21T04:01:36.191Z,29.43
2018-02-21T04:04:04.530Z,27.10
2018-02-21T04:06:33.661Z,26.97
2018-02-21T04:09:02.009Z,28.17
2018-02-21T04:11:30.384Z,27.60
2018-02-21T04:13:58.731Z,26.00
2018-02-21T04:16:27.083Z,26.60
2018-02-21T04:19:00.404Z,28.20
2018-02-21T04:21:28.740Z,27.90
2018-02-21T04:23:57.091Z,29.87
2018-02-21T04:26:25.440Z,28.93
2018-02-21T04:28:53.795Z,28.00
2018-02-21T04:31:22.152Z,26.83
2018-02-21T04:33:51.372Z,26.30
2018-02-21T04:36:19.731Z,28.37
2018-02-21T04:38:48.072Z,29.53
2018-02-21T04:41:16.419Z,28.97
2018-02-21T04:43:45.305Z,27.97
2018-02-21T04:46:13.657Z,28.60
2018-02-21T04:48:42.004Z,27.90
2018-02-21T04:51:10.380Z,29.13
2018-02-21T04:53:38.727Z,27.90
2018-02-21T04:56:13.159Z,26.17
2018-02-21T04:58:58.158Z,27.10
2018-02-21T05:01:27.604Z,27.13
2018-02-21T05:03:55.957Z,27.43
2018-02-21T05:06:24.305Z,26.50
2018-02-21T05:08:53.468Z,28.53
2018-02-21T05:11:21.816Z,26.73
2018-02-21T05:13:50.185Z,27.03
2018-02-21T05:16:19.303Z,25.77
2018-02-21T05:18:47.653Z,25.77
2018-02-21T05:21:16.045Z,27.03
2018-02-21T05:23:45.153Z,27.33
2018-02-21T05:26:13.532Z,27.83
2018-02-21T05:28:41.875Z,26.77
2018-02-21T05:31:10.207Z,25.17
2018-02-21T05:33:38.579Z,26.87
2018-02-21T05:36:06.933Z,28.70
2018-02-21T05:38:35.343Z,25.27
2018-02-21T05:41:03.689Z,25.20
2018-02-21T05:43:32.820Z,23.97
2018-02-21T05:46:01.303Z,25.93
2018-02-21T05:48:29.677Z,27.67
2018-02-21T05:50:58.070Z,27.53
2018-02-21T05:53:26.412Z,27.20
2018-02-21T05:55:55.588Z,25.43
2018-02-21T05:58:23.923Z,26.23
2018-02-21T06:00:52.392Z,26.97
2018-02-21T06:03:20.741Z,25.50
2018-02-21T06:05:49.856Z,27.57
2018-02-21T06:08:18.330Z,25.40
2018-02-21T06:10:47.440Z,27.40
2018-02-21T06:13:15.832Z,25.03
2018-02-21T06:15:44.208Z,25.40
2018-02-21T06:18:12.563Z,26.33
2018-02-21T06:20:41.700Z,28.50
2018-02-21T06:23:10.072Z,32.33
2018-02-21T06:25:38.443Z,27.33
2018-02-21T06:28:06.792Z,24.57
2018-02-21T06:30:35.957Z,27.63
2018-02-21T06:33:04.360Z,25.37
2018-02-21T06:35:32.837Z,32.97
2018-02-21T06:38:01.318Z,28.77
2018-02-21T06:40:29.829Z,26.97
2018-02-21T06:42:59.103Z,26.17
2018-02-21T06:45:27.605Z,26.00
2018-02-21T06:47:56.772Z,27.17
2018-02-21T06:50:25.208Z,40.50
2018-02-21T06:52:53.592Z,31.13
2018-02-21T06:55:22.584Z,27.23
2018-02-21T06:57:50.960Z,25.83
2018-02-21T07:00:19.341Z,27.80
2018-02-21T07:02:47.685Z,28.50
2018-02-21T07:05:16.808Z,31.00
2018-02-21T07:07:45.157Z,37.30
2018-02-21T07:10:15.004Z,33.13
2018-02-21T07:12:43.343Z,31.80
2018-02-21T07:15:12.137Z,29.20
2018-02-21T07:17:40.481Z,29.87
2018-02-21T07:20:08.832Z,29.60
2018-02-21T07:22:37.189Z,28.87
2018-02-21T07:25:05.528Z,27.80
2018-02-21T07:27:33.872Z,37.13
2018-02-21T07:30:02.221Z,32.47
2018-02-21T07:32:31.353Z,27.70
2018-02-21T07:34:59.762Z,23.77
2018-02-21T07:37:28.208Z,26.13
2018-02-21T07:39:56.556Z,24.40
2018-02-21T07:42:24.914Z,25.87
2018-02-21T07:44:53.264Z,24.43
2018-02-21T07:47:21.613Z,23.47
2018-02-21T07:49:50.089Z,47.47
2018-02-21T07:52:18.428Z,28.30
2018-02-21T07:54:46.772Z,25.63
2018-02-21T07:57:15.145Z,24.50
2018-02-21T07:59:43.582Z,25.43
2018-02-21T08:02:12.703Z,25.07
2018-02-21T08:04:41.052Z,23.03
2018-02-21T08:07:10.189Z,32.33
2018-02-21T08:09:38.682Z,40.67
2018-02-21T08:12:07.038Z,29.03
2018-02-21T08:14:35.428Z,25.17
2018-02-21T08:17:03.785Z,24.90
2018-02-21T08:19:33.021Z,23.37
2018-02-21T08:22:01.363Z,22.20
2018-02-21T08:24:29.733Z,21.87
2018-02-21T08:26:58.872Z,22.03
2018-02-21T08:29:27.298Z,22.70
2018-02-21T08:31:55.652Z,22.97
2018-02-21T08:34:24.005Z,21.53
2018-02-21T08:36:52.363Z,22.90
2018-02-21T08:39:20.754Z,29.70
2018-02-21T08:41:49.129Z,23.03
2018-02-21T08:44:17.484Z,20.77
2018-02-21T08:46:45.816Z,21.47
2018-02-21T08:49:14.282Z,23.67
2018-02-21T08:51:42.624Z,21.23
2018-02-21T08:54:11.728Z,21.57
2018-02-21T08:56:40.831Z,23.07
2018-02-21T08:59:09.533Z,21.17
2018-02-21T09:01:37.911Z,21.30
2018-02-21T09:04:06.258Z,21.20
2018-02-21T09:06:34.645Z,21.30
2018-02-21T09:09:02.936Z,20.30
2018-02-21T09:11:31.289Z,20.30
2018-02-21T09:14:00.417Z,19.90
2018-02-21T09:16:28.802Z,22.13
2018-02-21T09:18:57.137Z,20.37
2018-02-21T09:21:25.668Z,20.00
2018-02-21T09:23:54.040Z,20.17
2018-02-21T09:26:22.397Z,21.10
2018-02-21T09:28:51.502Z,21.33
2018-02-21T09:31:19.924Z,21.03
2018-02-21T09:33:48.290Z,33.37
2018-02-21T09:36:16.817Z,24.60
2018-02-21T09:38:45.247Z,23.27
2018-02-21T09:41:13.581Z,22.40
2018-02-21T09:43:42.716Z,21.27
2018-02-21T09:46:11.100Z,23.10
2018-02-21T09:48:39.436Z,21.67
2018-02-21T09:51:08.888Z,24.07
2018-02-21T09:53:37.233Z,22.30
2018-02-21T09:56:06.342Z,20.47
2018-02-21T09:58:34.742Z,22.53
2018-02-21T10:01:03.112Z,21.83
2018-02-21T10:03:31.492Z,23.10
2018-02-21T10:05:59.862Z,22.10
2018-02-21T10:08:28.228Z,22.07
2018-02-21T10:10:56.585Z,21.80
2018-02-21T10:13:25.099Z,22.67
2018-02-21T10:15:53.498Z,23.07
2018-02-21T10:18:21.852Z,20.80
2018-02-21T10:20:51.060Z,20.83
2018-02-21T10:23:19.391Z,21.23
2018-02-21T10:25:47.778Z,21.60
2018-02-21T10:28:16.204Z,21.97
2018-02-21T10:30:44.549Z,24.40
2018-02-21T10:33:13.663Z,22.30
2018-02-21T10:35:41.999Z,21.90
2018-02-21T10:38:10.441Z,21.30
2018-02-21T10:40:38.977Z,22.70
2018-02-21T10:43:07.349Z,22.50
2018-02-21T10:45:35.699Z,20.97
2018-02-21T10:48:04.053Z,21.13
2018-02-21T10:50:32.392Z,21.23
2018-02-21T10:53:00.822Z,21.77
2018-02-21T10:55:29.206Z,22.63
2018-02-21T10:57:57.774Z,22.83
2018-02-21T11:00:31.688Z,22.40
2018-02-21T11:03:00.082Z,20.97
2018-02-21T11:05:28.437Z,21.50
2018-02-21T11:07:56.763Z,20.43
2018-02-21T11:10:25.212Z,19.97
2018-02-21T11:12:54.183Z,20.73
2018-02-21T11:15:22.568Z,19.50
2018-02-21T11:17:50.985Z,19.93
2018-02-21T11:20:19.303Z,21.53
2018-02-21T11:22:48.446Z,20.87
2018-02-21T11:25:16.767Z,19.57
2018-02-21T11:27:45.137Z,19.23
2018-02-21T11:30:13.505Z,19.23
2018-02-21T11:32:41.851Z,20.43
2018-02-21T11:35:10.224Z,20.50
2018-02-21T11:37:38.609Z,19.87
2018-02-21T11:40:07.000Z,19.87
2018-02-21T11:42:35.320Z,19.70
2018-02-21T11:45:03.744Z,19.87
2018-02-21T11:47:32.132Z,18.60
2018-02-21T11:50:00.471Z,19.57
2018-02-21T11:52:29.579Z,18.77
2018-02-21T11:54:58.692Z,19.13
2018-02-21T11:57:27.065Z,18.50
2018-02-21T11:59:55.648Z,19.00
2018-02-21T12:02:23.992Z,18.70
2018-02-21T12:04:52.382Z,18.70
2018-02-21T12:07:20.699Z,18.30
2018-02-21T12:09:49.072Z,17.80
2018-02-21T12:12:17.425Z,18.50
2018-02-21T12:14:46.554Z,17.57
2018-02-21T12:17:14.928Z,15.93
2018-02-21T12:19:43.420Z,16.20
2018-02-21T12:22:11.762Z,15.30
2018-02-21T12:24:40.900Z,16.00
2018-02-21T12:27:09.339Z,17.33
2018-02-21T12:29:38.457Z,14.83
2018-02-21T12:32:06.836Z,16.13
2018-02-21T12:34:35.166Z,15.00
2018-02-21T12:37:03.516Z,15.63
2018-02-21T12:39:36.505Z,15.47
2018-02-21T12:42:04.861Z,15.73
2018-02-21T12:44:33.240Z,15.67
2018-02-21T12:47:01.704Z,13.97
2018-02-21T12:49:30.088Z,13.60
2018-02-21T12:51:58.440Z,13.83
2018-02-21T12:54:26.873Z,14.43
2018-02-21T12:56:55.237Z,15.27
2018-02-21T12:59:23.598Z,15.13
2018-02-21T13:01:52.724Z,14.77
2018-02-21T13:04:21.116Z,14.33
2018-02-21T13:06:49.584Z,15.33
2018-02-21T13:09:17.920Z,15.33
2018-02-21T13:11:47.929Z,16.37
2018-02-21T13:14:16.367Z,15.07
2018-02-21T13:16:44.953Z,14.70
2018-02-21T13:19:13.297Z,15.70
2018-02-21T13:21:41.627Z,15.37
2018-02-21T13:24:10.008Z,15.23
2018-02-21T13:26:38.960Z,16.20
2018-02-21T13:29:07.301Z,16.03
2018-02-21T13:31:35.726Z,15.03
2018-02-21T13:34:04.125Z,26.47
2018-02-21T13:36:32.467Z,21.73
2018-02-21T13:39:00.826Z,16.30
2018-02-21T13:41:29.368Z,16.07
2018-02-21T13:43:57.701Z,13.97
2018-02-21T13:46:26.803Z,14.43
2018-02-21T13:48:55.157Z,14.53
2018-02-21T13:51:23.492Z,14.10
2018-02-21T13:53:51.858Z,14.33
2018-02-21T13:56:20.208Z,13.83
2018-02-21T13:58:49.339Z,12.23
2018-02-21T14:01:17.692Z,13.50
2018-02-21T14:03:46.789Z,14.50
2018-02-21T14:06:15.164Z,14.03
2018-02-21T14:08:44.401Z,13.63
2018-02-21T14:11:12.745Z,17.13
2018-02-21T14:13:41.241Z,26.93
2018-02-21T14:16:09.733Z,16.73
2018-02-21T14:18:38.080Z,14.70
2018-02-21T14:21:06.429Z,13.80
2018-02-21T14:23:34.780Z,12.67
2018-02-21T14:26:03.269Z,13.63
2018-02-21T14:28:31.653Z,14.27
2018-02-21T14:31:00.012Z,14.17
2018-02-21T14:33:28.373Z,12.97
2018-02-21T14:35:56.736Z,14.10
2018-02-21T14:38:25.165Z,13.33
2018-02-21T14:40:53.503Z,12.77
2018-02-21T14:43:21.857Z,13.77
2018-02-21T14:45:50.193Z,14.33
2018-02-21T14:48:18.536Z,13.87
2018-02-21T14:50:46.899Z,13.17
2018-02-21T14:53:16.328Z,13.20
2018-02-21T14:55:44.661Z,15.03
2018-02-21T14:58:13.015Z,18.10
2018-02-21T15:00:41.354Z,14.60
2018-02-21T15:03:10.473Z,14.90
2018-02-21T15:05:38.814Z,14.60
2018-02-21T15:08:07.187Z,13.47
2018-02-21T15:10:36.360Z,14.30
2018-02-21T15:13:04.709Z,14.33
2018-02-21T15:15:33.070Z,14.37
2018-02-21T15:18:02.173Z,15.47
2018-02-21T15:20:30.550Z,13.27
2018-02-21T15:22:58.892Z,14.37
2018-02-21T15:25:27.418Z,14.07
2018-02-21T15:27:55.740Z,14.20
2018-02-21T15:30:24.087Z,13.77
2018-02-21T15:32:52.442Z,14.17
2018-02-21T15:35:20.838Z,15.57
2018-02-21T15:37:49.164Z,14.30
2018-02-21T15:40:17.498Z,14.20
2018-02-21T15:42:45.897Z,13.93
2018-02-21T15:45:14.301Z,13.67
2018-02-21T15:47:42.606Z,13.97
2018-02-21T15:50:11.004Z,13.60
2018-02-21T15:52:39.341Z,13.33
2018-02-21T15:55:07.693Z,13.90
2018-02-21T15:57:36.023Z,13.17
2018-02-21T16:00:04.372Z,12.43
2018-02-21T16:02:32.821Z,13.10
2018-02-21T16:05:01.299Z,13.77
2018-02-21T16:07:29.640Z,13.47
2018-02-21T16:09:58.773Z,13.23
2018-02-21T16:12:27.115Z,13.70
2018-02-21T16:14:56.216Z,12.57
2018-02-21T16:17:24.586Z,13.83
2018-02-21T16:19:53.732Z,12.63
2018-02-21T16:22:22.048Z,13.00
2018-02-21T16:24:50.416Z,12.97
2018-02-21T16:27:18.743Z,13.70
2018-02-21T16:29:47.471Z,12.90
2018-02-21T16:32:15.809Z,13.47
2018-02-21T16:34:44.141Z,13.00
2018-02-21T16:37:12.599Z,12.47
2018-02-21T16:39:40.968Z,13.17
2018-02-21T16:42:09.349Z,12.73
2018-02-21T16:44:37.794Z,12.77
2018-02-21T16:47:06.899Z,13.67
2018-02-21T16:49:35.250Z,13.03
2018-02-21T16:52:03.725Z,13.30
2018-02-21T16:54:32.111Z,14.43
2018-02-21T16:57:00.538Z,12.83
2018-02-21T16:59:28.885Z,12.90
2018-02-21T17:01:59.818Z,14.07
2018-02-21T17:04:28.946Z,13.13
2018-02-21T17:06:57.351Z,14.47
2018-02-21T17:09:25.700Z,13.73
2018-02-21T17:11:54.124Z,12.80
2018-02-21T17:14:22.542Z,12.73
2018-02-21T17:16:50.935Z,13.63
2018-02-21T17:19:19.289Z,18.13
2018-02-21T17:21:48.486Z,16.23
2018-02-21T17:24:16.936Z,14.23
2018-02-21T17:26:45.271Z,13.80
2018-02-21T17:29:13.615Z,15.40
2018-02-21T17:31:41.959Z,14.80
2018-02-21T17:34:10.316Z,16.07
2018-02-21T17:36:38.701Z,14.43
2018-02-21T17:39:07.101Z,14.00
2018-02-21T17:41:35.498Z,12.97
2018-02-21T17:44:03.878Z,13.63
2018-02-21T17:46:32.188Z,13.73
2018-02-21T17:49:00.539Z,13.53
2018-02-21T17:51:28.970Z,14.23
2018-02-21T17:53:57.824Z,12.83
2018-02-21T17:56:26.951Z,13.63
2018-02-21T17:58:55.364Z,14.03
2018-02-21T18:01:23.839Z,14.77
2018-02-21T18:03:52.189Z,12.93
2018-02-21T18:06:20.592Z,13.70
2018-02-21T18:08:48.924Z,13.80
2018-02-21T18:11:18.036Z,13.90
2018-02-21T18:13:46.393Z,12.73
2018-02-21T18:16:15.516Z,11.53
2018-02-21T18:18:43.919Z,13.63
2018-02-21T18:21:18.034Z,14.10
2018-02-21T18:23:46.522Z,13.63
2018-02-21T18:26:14.933Z,18.97
2018-02-21T18:28:43.273Z,16.20
2018-02-21T18:31:11.623Z,14.67
2018-02-21T18:33:40.015Z,13.57
2018-02-21T18:36:08.402Z,14.37
2018-02-21T18:38:36.778Z,14.60
2018-02-21T18:41:05.155Z,14.50
2018-02-21T18:43:33.500Z,14.70
2018-02-21T18:46:03.344Z,13.63
2018-02-21T18:48:31.792Z,13.60
2018-02-21T18:51:00.902Z,13.03
2018-02-21T18:53:30.264Z,12.97
2018-02-21T18:55:58.723Z,13.80
2018-02-21T18:58:27.080Z,14.37
2018-02-21T19:00:55.998Z,13.30
2018-02-21T19:03:24.377Z,13.77
2018-02-21T19:05:53.887Z,14.37
2018-02-21T19:08:22.365Z,13.40
2018-02-21T19:10:50.962Z,14.10
2018-02-21T19:13:19.309Z,13.97
2018-02-21T19:15:47.680Z,17.27
2018-02-21T19:18:16.956Z,15.17
2018-02-21T19:20:45.396Z,13.90
2018-02-21T19:23:14.069Z,14.47
2018-02-21T19:25:42.394Z,14.33
2018-02-21T19:28:10.822Z,13.73
2018-02-21T19:30:39.162Z,14.60
2018-02-21T19:33:08.202Z,14.17
2018-02-21T19:35:36.683Z,13.00
2018-02-21T19:38:05.044Z,13.53
2018-02-21T19:40:33.806Z,14.00
2018-02-21T19:43:02.291Z,14.60
2018-02-21T19:45:30.942Z,13.37
2018-02-21T19:47:59.597Z,13.40
2018-02-21T19:50:28.675Z,13.90
2018-02-21T19:52:57.109Z,14.23
2018-02-21T19:55:25.460Z,13.40
2018-02-21T19:57:53.825Z,13.30
2018-02-21T20:00:22.177Z,14.00
2018-02-21T20:02:50.552Z,13.37
2018-02-21T20:05:18.920Z,14.07
2018-02-21T20:07:48.061Z,13.30
2018-02-21T20:10:16.669Z,15.07
2018-02-21T20:12:45.030Z,14.73
2018-02-21T20:15:13.402Z,14.17
2018-02-21T20:17:41.763Z,12.67
2018-02-21T20:20:10.194Z,12.40
2018-02-21T20:22:38.582Z,13.33
2018-02-21T20:25:07.065Z,14.10
2018-02-21T20:27:35.545Z,13.00
2018-02-21T20:30:03.940Z,13.30
2018-02-21T20:32:33.201Z,14.40
2018-02-21T20:35:01.557Z,28.07
2018-02-21T20:37:29.913Z,16.00
2018-02-21T20:39:58.411Z,15.40
2018-02-21T20:42:26.792Z,13.00
2018-02-21T20:44:55.437Z,12.70
2018-02-21T20:47:23.815Z,12.93
2018-02-21T20:49:52.265Z,14.30
2018-02-21T20:52:20.717Z,14.13
2018-02-21T20:54:49.210Z,14.70
2018-02-21T20:57:17.722Z,12.90
2018-02-21T20:59:46.169Z,13.70
2018-02-21T21:02:14.534Z,12.77
2018-02-21T21:04:42.925Z,13.93
2018-02-21T21:07:11.271Z,13.80
2018-02-21T21:09:40.414Z,13.90
2018-02-21T21:12:08.775Z,13.77
2018-02-21T21:14:37.132Z,14.03
2018-02-21T21:17:06.260Z,13.57
2018-02-21T21:19:36.091Z,15.53
2018-02-21T21:22:04.456Z,15.50
2018-02-21T21:24:32.885Z,14.03
2018-02-21T21:27:01.350Z,14.23
2018-02-21T21:29:29.794Z,14.27
2018-02-21T21:31:58.292Z,14.10
2018-02-21T21:34:26.657Z,13.40
2018-02-21T21:36:55.045Z,14.13
2018-02-21T21:39:23.421Z,14.33
2018-02-21T21:41:51.805Z,15.17
2018-02-21T21:44:20.169Z,14.37
2018-02-21T21:46:48.521Z,15.23
2018-02-21T21:49:17.651Z,13.70
2018-02-21T21:51:46.059Z,15.20
2018-02-21T21:54:14.700Z,15.77
2018-02-21T21:56:43.102Z,15.57
2018-02-21T21:59:11.453Z,14.57
2018-02-21T22:01:39.835Z,13.97
2018-02-21T22:04:08.237Z,15.30
2018-02-21T22:06:36.576Z,14.37
2018-02-21T22:09:05.692Z,14.27
2018-02-21T22:11:34.089Z,14.17
2018-02-21T22:14:02.605Z,14.17
2018-02-21T22:16:30.968Z,14.03
2018-02-21T22:18:59.347Z,14.43
2018-02-21T22:21:27.725Z,15.57
2018-02-21T22:23:56.365Z,13.80
2018-02-21T22:26:24.783Z,14.47
2018-02-21T22:28:53.144Z,14.37
2018-02-21T22:31:21.679Z,14.00
2018-02-21T22:33:49.989Z,14.13
2018-02-21T22:36:19.106Z,14.30
2018-02-21T22:38:47.487Z,13.93
2018-02-21T22:41:15.850Z,15.03
2018-02-21T22:43:44.408Z,15.40
2018-02-21T22:46:13.541Z,14.60
2018-02-21T22:48:41.966Z,14.10
2018-02-21T22:51:10.428Z,15.00
2018-02-21T22:53:38.772Z,15.43
2018-02-21T22:56:07.881Z,16.30
2018-02-21T22:58:36.230Z,15.20
2018-02-21T23:01:05.363Z,15.60
2018-02-21T23:03:33.715Z,14.63
2018-02-21T23:06:02.119Z,16.33
2018-02-21T23:08:30.483Z,15.50
2018-02-21T23:10:58.849Z,15.07
2018-02-21T23:13:27.207Z,14.80
2018-02-21T23:15:56.320Z,15.73
2018-02-21T23:18:25.543Z,14.57
2018-02-21T23:20:53.938Z,15.03
2018-02-21T23:23:22.621Z,16.90
2018-02-21T23:25:50.965Z,16.80
2018-02-21T23:28:20.072Z,16.27
2018-02-21T23:30:48.543Z,15.53
2018-02-21T23:33:16.896Z,15.60
2018-02-21T23:35:45.253Z,16.77
2018-02-21T23:38:13.772Z,14.77
2018-02-21T23:40:42.197Z,14.40
2018-02-21T23:43:10.605Z,15.07
2018-02-21T23:45:38.941Z,15.63
2018-02-21T23:48:07.302Z,15.40
2018-02-21T23:50:35.648Z,15.73
2018-02-21T23:53:04.055Z,14.63
2018-02-21T23:55:33.154Z,14.67
2018-02-21T23:58:02.389Z,15.13
